createdAt,value
2017-07-03T00:00:02.556Z,946.62
2017-07-03T00:00:30.616Z,946.61
2017-07-03T00:00:58.753Z,946.67
2017-07-03T00:01:26.882Z,946.63
2017-07-03T00:01:55.042Z,946.65
2017-07-03T00:02:23.166Z,946.69
2017-07-03T00:02:51.275Z,946.71
2017-07-03T00:03:19.330Z,946.7
2017-07-03T00:03:47.466Z,946.73
2017-07-03T00:04:15.502Z,946.8
2017-07-03T00:04:43.659Z,946.77
2017-07-03T00:05:11.817Z,946.76
2017-07-03T00:05:39.833Z,946.84
2017-07-03T00:06:07.981Z,946.78
2017-07-03T00:06:36.144Z,946.78
2017-07-03T00:07:04.185Z,946.78
2017-07-03T00:07:32.201Z,946.79
2017-07-03T00:08:00.352Z,946.77
2017-07-03T00:08:28.496Z,946.78
2017-07-03T00:08:56.617Z,946.78
2017-07-03T00:09:24.745Z,946.8
2017-07-03T00:09:52.906Z,946.82
2017-07-03T00:10:21.010Z,946.81
2017-07-03T00:10:49.131Z,946.84
2017-07-03T00:11:17.199Z,946.85
2017-07-03T00:11:45.253Z,946.88
2017-07-03T00:12:13.391Z,946.86
2017-07-03T00:12:41.534Z,946.89
2017-07-03T00:13:09.664Z,946.94
2017-07-03T00:13:37.716Z,946.91
2017-07-03T00:14:05.843Z,946.92
2017-07-03T00:14:33.893Z,946.97
2017-07-03T00:15:01.875Z,946.91
2017-07-03T00:15:30.025Z,946.86
2017-07-03T00:15:58.146Z,946.96
2017-07-03T00:16:26.279Z,946.93
2017-07-03T00:16:54.428Z,946.93
2017-07-03T00:17:22.554Z,946.99
2017-07-03T00:17:50.669Z,946.96
2017-07-03T00:18:18.807Z,946.94
2017-07-03T00:18:46.939Z,946.92
2017-07-03T00:19:15.048Z,946.93
2017-07-03T00:19:43.218Z,946.93
2017-07-03T00:20:11.284Z,946.92
2017-07-03T00:20:39.434Z,946.91
2017-07-03T00:21:07.586Z,946.93
2017-07-03T00:21:35.513Z,946.92
2017-07-03T00:22:03.643Z,946.92
2017-07-03T00:22:31.742Z,946.92
2017-07-03T00:23:01.071Z,946.91
2017-07-03T00:23:29.810Z,946.91
2017-07-03T00:23:58.417Z,946.94
2017-07-03T00:24:27.043Z,946.93
2017-07-03T00:24:55.649Z,946.93
2017-07-03T00:25:24.266Z,946.93
2017-07-03T00:25:52.886Z,946.94
2017-07-03T00:26:21.576Z,946.96
2017-07-03T00:26:50.112Z,946.95
2017-07-03T00:27:18.726Z,946.94
2017-07-03T00:27:47.346Z,946.95
2017-07-03T00:28:15.973Z,946.95
2017-07-03T00:28:44.499Z,946.99
2017-07-03T00:29:13.088Z,946.96
2017-07-03T00:29:41.604Z,947
2017-07-03T00:30:10.183Z,946.99
2017-07-03T00:30:38.789Z,947.01
2017-07-03T00:31:07.300Z,947.05
2017-07-03T00:31:36.966Z,947.01
2017-07-03T00:32:05.832Z,947.03
2017-07-03T00:32:34.900Z,947.04
2017-07-03T00:33:04.058Z,947.04
2017-07-03T00:33:32.665Z,947.03
2017-07-03T00:34:01.332Z,947.07
2017-07-03T00:34:29.916Z,947.1
2017-07-03T00:34:58.435Z,947.03
2017-07-03T00:35:27.096Z,947.07
2017-07-03T00:35:55.703Z,947.12
2017-07-03T00:36:24.218Z,947.09
2017-07-03T00:36:52.743Z,947.12
2017-07-03T00:37:21.343Z,947.15
2017-07-03T00:37:49.954Z,947.09
2017-07-03T00:38:18.572Z,947.12
2017-07-03T00:38:47.158Z,947.11
2017-07-03T00:39:15.781Z,947.09
2017-07-03T00:39:44.379Z,947.14
2017-07-03T00:40:12.991Z,947.09
2017-07-03T00:40:41.503Z,947.08
2017-07-03T00:41:10.123Z,947.12
2017-07-03T00:41:38.734Z,947.12
2017-07-03T00:42:07.355Z,947.06
2017-07-03T00:42:35.866Z,947.1
2017-07-03T00:43:04.497Z,947.13
2017-07-03T00:43:33.107Z,947.12
2017-07-03T00:44:01.735Z,947.1
2017-07-03T00:44:30.332Z,947.07
2017-07-03T00:44:58.938Z,947.06
2017-07-03T00:45:27.543Z,947.09
2017-07-03T00:45:56.147Z,947.07
2017-07-03T00:46:24.759Z,947.08
2017-07-03T00:46:53.265Z,947.1
2017-07-03T00:47:21.889Z,947.13
2017-07-03T00:47:50.454Z,947.1
2017-07-03T00:48:19.054Z,947.11
2017-07-03T00:48:47.684Z,947.12
2017-07-03T00:49:16.282Z,947.06
2017-07-03T00:49:44.706Z,947.07
2017-07-03T00:50:13.329Z,947.08
2017-07-03T00:50:41.953Z,947.13
2017-07-03T00:51:10.557Z,947.12
2017-07-03T00:51:39.153Z,947.09
2017-07-03T00:52:07.767Z,947.12
2017-07-03T00:52:36.382Z,947.12
2017-07-03T00:53:04.962Z,947.11
2017-07-03T00:53:33.552Z,947.09
2017-07-03T00:54:02.084Z,947.11
2017-07-03T00:54:30.702Z,947.12
2017-07-03T00:54:59.318Z,947.13
2017-07-03T00:55:27.920Z,947.15
2017-07-03T00:55:56.549Z,947.09
2017-07-03T00:56:25.148Z,947.1
2017-07-03T00:56:53.646Z,947.1
2017-07-03T00:57:22.269Z,947.1
2017-07-03T00:57:50.663Z,947.07
2017-07-03T00:58:19.273Z,947.08
2017-07-03T00:58:47.680Z,947.1
2017-07-03T00:59:16.203Z,947.07
2017-07-03T00:59:44.712Z,947.09
2017-07-03T01:00:13.330Z,947.08
2017-07-03T01:00:41.950Z,947.09
2017-07-03T01:01:10.537Z,947.08
2017-07-03T01:01:39.147Z,947.1
2017-07-03T01:02:07.753Z,947.09
2017-07-03T01:02:36.346Z,947.14
2017-07-03T01:03:04.984Z,947.11
2017-07-03T01:03:33.595Z,947.13
2017-07-03T01:04:02.122Z,947.14
2017-07-03T01:04:30.745Z,947.11
2017-07-03T01:04:59.344Z,947.13
2017-07-03T01:05:27.936Z,947.15
2017-07-03T01:05:56.450Z,947.07
2017-07-03T01:06:25.078Z,947.07
2017-07-03T01:06:53.678Z,947.07
2017-07-03T01:07:22.199Z,947.06
2017-07-03T01:07:50.698Z,947.06
2017-07-03T01:08:19.320Z,947.1
2017-07-03T01:08:47.829Z,947.06
2017-07-03T01:09:16.225Z,947.08
2017-07-03T01:09:44.830Z,947.09
2017-07-03T01:10:13.436Z,947.05
2017-07-03T01:10:42.043Z,947.05
2017-07-03T01:11:10.647Z,947.09
2017-07-03T01:11:39.228Z,947.09
2017-07-03T01:12:07.837Z,947.04
2017-07-03T01:12:36.454Z,947.09
2017-07-03T01:13:05.084Z,947.08
2017-07-03T01:13:33.519Z,947.07
2017-07-03T01:14:02.037Z,947.04
2017-07-03T01:14:30.663Z,947.08
2017-07-03T01:14:59.290Z,947.08
2017-07-03T01:15:27.796Z,947.07
2017-07-03T01:15:56.316Z,947.09
2017-07-03T01:16:24.935Z,947.1
2017-07-03T01:16:53.455Z,947.1
2017-07-03T01:17:22.075Z,947.12
2017-07-03T01:17:50.685Z,947.13
2017-07-03T01:18:19.287Z,947.14
2017-07-03T01:18:50.512Z,947.12
2017-07-03T01:19:19.127Z,947.08
2017-07-03T01:19:47.706Z,947.13
2017-07-03T01:20:16.103Z,947.15
2017-07-03T01:20:44.700Z,947.13
2017-07-03T01:21:13.299Z,947.16
2017-07-03T01:21:41.918Z,947.15
2017-07-03T01:22:10.509Z,947.12
2017-07-03T01:22:39.125Z,947.1
2017-07-03T01:23:07.734Z,947.13
2017-07-03T01:23:36.245Z,947.14
2017-07-03T01:24:04.842Z,947.21
2017-07-03T01:24:33.546Z,947.17
2017-07-03T01:25:02.148Z,947.22
2017-07-03T01:25:30.742Z,947.2
2017-07-03T01:25:59.372Z,947.19
2017-07-03T01:26:28.037Z,947.18
2017-07-03T01:26:56.626Z,947.2
2017-07-03T01:27:25.257Z,947.2
2017-07-03T01:27:53.866Z,947.19
2017-07-03T01:28:22.465Z,947.16
2017-07-03T01:28:51.066Z,947.16
2017-07-03T01:29:19.593Z,947.15
2017-07-03T01:29:48.250Z,947.14
2017-07-03T01:30:16.809Z,947.17
2017-07-03T01:30:45.241Z,947.19
2017-07-03T01:31:13.863Z,947.19
2017-07-03T01:31:42.453Z,947.18
2017-07-03T01:32:11.059Z,947.16
2017-07-03T01:32:39.668Z,947.17
2017-07-03T01:33:08.274Z,947.2
2017-07-03T01:33:36.805Z,947.21
2017-07-03T01:34:05.405Z,947.18
2017-07-03T01:34:33.905Z,947.2
2017-07-03T01:35:02.530Z,947.22
2017-07-03T01:35:30.942Z,947.22
2017-07-03T01:35:59.456Z,947.22
2017-07-03T01:36:28.112Z,947.24
2017-07-03T01:36:56.739Z,947.26
2017-07-03T01:37:25.356Z,947.25
2017-07-03T01:37:53.986Z,947.27
2017-07-03T01:38:22.598Z,947.22
2017-07-03T01:38:51.201Z,947.25
2017-07-03T01:39:19.833Z,947.22
2017-07-03T01:39:48.447Z,947.21
2017-07-03T01:40:17.058Z,947.22
2017-07-03T01:40:45.668Z,947.2
2017-07-03T01:41:14.209Z,947.21
2017-07-03T01:41:53.190Z,947.19
2017-07-03T01:42:22.491Z,947.18
2017-07-03T01:42:50.915Z,947.16
2017-07-03T01:43:19.521Z,947.17
2017-07-03T01:43:48.116Z,947.15
2017-07-03T01:44:16.732Z,947.18
2017-07-03T01:44:45.174Z,947.18
2017-07-03T01:45:13.681Z,947.15
2017-07-03T01:45:42.175Z,947.16
2017-07-03T01:46:10.770Z,947.18
2017-07-03T01:46:39.318Z,947.19
2017-07-03T01:47:07.934Z,947.2
2017-07-03T01:47:36.522Z,947.16
2017-07-03T01:48:05.139Z,947.2
2017-07-03T01:48:33.739Z,947.16
2017-07-03T01:49:02.348Z,947.2
2017-07-03T01:49:30.983Z,947.19
2017-07-03T01:49:59.604Z,947.17
2017-07-03T01:50:28.228Z,947.18
2017-07-03T01:50:56.823Z,947.15
2017-07-03T01:51:25.405Z,947.11
2017-07-03T01:51:54.040Z,947.15
2017-07-03T01:52:22.623Z,947.08
2017-07-03T01:52:51.225Z,947.13
2017-07-03T01:53:19.745Z,947.15
2017-07-03T01:53:48.290Z,947.14
2017-07-03T01:54:16.893Z,947.1
2017-07-03T01:54:45.523Z,947.11
2017-07-03T01:55:14.033Z,947.11
2017-07-03T01:55:42.660Z,947.11
2017-07-03T01:56:11.261Z,947.14
2017-07-03T01:56:39.879Z,947.13
2017-07-03T01:57:08.389Z,947.12
2017-07-03T01:57:37.104Z,947.19
2017-07-03T01:58:05.720Z,947.13
2017-07-03T01:58:34.362Z,947.15
2017-07-03T01:59:02.954Z,947.14
2017-07-03T01:59:31.451Z,947.13
2017-07-03T01:59:59.958Z,947.12
2017-07-03T02:00:28.559Z,947.14
2017-07-03T02:00:57.141Z,947.12
2017-07-03T02:01:25.723Z,947.12
2017-07-03T02:01:54.247Z,947.12
2017-07-03T02:02:22.860Z,947.12
2017-07-03T02:02:51.479Z,947.06
2017-07-03T02:03:20.083Z,947.09
2017-07-03T02:03:48.702Z,947.07
2017-07-03T02:04:17.313Z,947.07
2017-07-03T02:04:45.755Z,947.11
2017-07-03T02:05:14.382Z,947.07
2017-07-03T02:05:42.985Z,947.06
2017-07-03T02:06:11.585Z,947.07
2017-07-03T02:06:40.072Z,947.07
2017-07-03T02:07:08.590Z,947.1
2017-07-03T02:07:37.214Z,947.07
2017-07-03T02:08:05.834Z,947.06
2017-07-03T02:08:34.426Z,947.08
2017-07-03T02:09:03.028Z,947.06
2017-07-03T02:09:31.637Z,947.03
2017-07-03T02:10:00.130Z,947.07
2017-07-03T02:10:28.759Z,947.05
2017-07-03T02:10:57.393Z,947.06
2017-07-03T02:11:25.919Z,947.09
2017-07-03T02:11:54.510Z,947.12
2017-07-03T02:12:23.139Z,947.06
2017-07-03T02:12:51.678Z,947.07
2017-07-03T02:13:20.280Z,947.03
2017-07-03T02:13:48.876Z,947.03
2017-07-03T02:14:17.386Z,947.08
2017-07-03T02:14:45.976Z,947.07
2017-07-03T02:15:14.494Z,947.08
2017-07-03T02:15:43.108Z,947.05
2017-07-03T02:16:11.727Z,947.07
2017-07-03T02:16:40.350Z,947.07
2017-07-03T02:17:08.961Z,947.09
2017-07-03T02:17:37.555Z,947.1
2017-07-03T02:18:06.147Z,947.08
2017-07-03T02:18:34.737Z,947.12
2017-07-03T02:19:03.245Z,947.1
2017-07-03T02:19:31.860Z,947.12
2017-07-03T02:20:00.471Z,947.12
2017-07-03T02:20:29.083Z,947.11
2017-07-03T02:20:57.715Z,947.12
2017-07-03T02:21:26.343Z,947.17
2017-07-03T02:21:54.914Z,947.15
2017-07-03T02:22:23.443Z,947.16
2017-07-03T02:22:52.063Z,947.12
2017-07-03T02:23:20.582Z,947.19
2017-07-03T02:23:49.179Z,947.16
2017-07-03T02:24:17.798Z,947.16
2017-07-03T02:24:46.400Z,947.15
2017-07-03T02:25:15.022Z,947.15
2017-07-03T02:25:43.634Z,947.18
2017-07-03T02:26:12.239Z,947.15
2017-07-03T02:26:40.846Z,947.14
2017-07-03T02:27:09.372Z,947.15
2017-07-03T02:27:37.987Z,947.14
2017-07-03T02:28:06.510Z,947.13
2017-07-03T02:28:35.156Z,947.1
2017-07-03T02:29:03.775Z,947.13
2017-07-03T02:29:32.391Z,947.13
2017-07-03T02:30:00.992Z,947.11
2017-07-03T02:30:29.586Z,947.09
2017-07-03T02:30:58.196Z,947.08
2017-07-03T02:31:26.801Z,947.09
2017-07-03T02:31:55.439Z,947.05
2017-07-03T02:32:23.932Z,947.1
2017-07-03T02:32:52.441Z,947.07
2017-07-03T02:33:21.050Z,947.06
2017-07-03T02:33:49.666Z,947.07
2017-07-03T02:34:18.257Z,947.09
2017-07-03T02:34:46.891Z,947.06
2017-07-03T02:35:15.490Z,947.11
2017-07-03T02:35:44.071Z,947.1
2017-07-03T02:36:12.692Z,947.06
2017-07-03T02:36:41.333Z,947.1
2017-07-03T02:37:09.924Z,947.13
2017-07-03T02:37:38.508Z,947.07
2017-07-03T02:38:07.095Z,947.12
2017-07-03T02:38:35.707Z,947.1
2017-07-03T02:39:04.329Z,947.1
2017-07-03T02:39:32.953Z,947.11
2017-07-03T02:40:01.580Z,947.1
2017-07-03T02:40:30.187Z,947.11
2017-07-03T02:40:58.727Z,947.11
2017-07-03T02:41:27.316Z,947.09
2017-07-03T02:41:55.917Z,947.1
2017-07-03T02:42:24.544Z,947.11
2017-07-03T02:42:53.074Z,947.13
2017-07-03T02:43:21.709Z,947.13
2017-07-03T02:43:50.308Z,947.12
2017-07-03T02:44:18.793Z,947.13
2017-07-03T02:44:47.427Z,947.14
2017-07-03T02:45:16.013Z,947.11
2017-07-03T02:45:44.506Z,947.15
2017-07-03T02:46:13.138Z,947.16
2017-07-03T02:46:56.158Z,947.14
2017-07-03T02:48:22.665Z,947.14
2017-07-03T02:48:51.181Z,947.12
2017-07-03T02:49:19.782Z,947.1
2017-07-03T02:49:48.402Z,947.07
2017-07-03T02:50:17.017Z,947.1
2017-07-03T02:50:45.554Z,947.11
2017-07-03T02:51:14.194Z,947.12
2017-07-03T02:51:42.839Z,947.12
2017-07-03T02:52:11.329Z,947.13
2017-07-03T02:52:39.905Z,947.08
2017-07-03T02:53:08.519Z,947.1
2017-07-03T02:53:37.106Z,947.14
2017-07-03T02:54:05.728Z,947.15
2017-07-03T02:54:34.336Z,947.15
2017-07-03T02:55:02.916Z,947.18
2017-07-03T02:55:31.405Z,947.16
2017-07-03T02:56:00.022Z,947.19
2017-07-03T02:56:28.611Z,947.16
2017-07-03T02:56:57.199Z,947.14
2017-07-03T02:57:25.803Z,947.15
2017-07-03T02:57:54.387Z,947.16
2017-07-03T02:58:22.999Z,947.2
2017-07-03T02:58:51.599Z,947.13
2017-07-03T02:59:20.219Z,947.13
2017-07-03T02:59:48.841Z,947.15
2017-07-03T03:00:17.413Z,947.12
2017-07-03T03:00:46.021Z,947.08
2017-07-03T03:01:14.648Z,947.11
2017-07-03T03:01:43.255Z,947.11
2017-07-03T03:02:11.873Z,947.1
2017-07-03T03:02:40.220Z,947.1
2017-07-03T03:03:08.812Z,947.11
2017-07-03T03:03:37.423Z,947.06
2017-07-03T03:04:06.055Z,947
2017-07-03T03:04:34.659Z,947.01
2017-07-03T03:05:03.257Z,947.01
2017-07-03T03:05:31.842Z,947.03
2017-07-03T03:06:00.433Z,947.02
2017-07-03T03:06:29.011Z,946.95
2017-07-03T03:06:57.611Z,946.94
2017-07-03T03:07:26.089Z,947.02
2017-07-03T03:07:54.730Z,947.01
2017-07-03T03:08:23.132Z,947
2017-07-03T03:08:51.770Z,947.03
2017-07-03T03:09:20.366Z,946.99
2017-07-03T03:09:48.969Z,946.95
2017-07-03T03:10:17.507Z,946.92
2017-07-03T03:10:46.122Z,946.97
2017-07-03T03:11:14.721Z,946.97
2017-07-03T03:11:43.255Z,946.92
2017-07-03T03:12:11.754Z,946.97
2017-07-03T03:12:40.347Z,946.98
2017-07-03T03:13:08.868Z,946.97
2017-07-03T03:13:37.479Z,946.93
2017-07-03T03:14:06.115Z,946.96
2017-07-03T03:14:34.666Z,946.99
2017-07-03T03:15:03.164Z,946.9
2017-07-03T03:15:31.749Z,946.92
2017-07-03T03:16:00.354Z,946.92
2017-07-03T03:16:28.885Z,946.92
2017-07-03T03:16:57.511Z,946.93
2017-07-03T03:17:26.105Z,946.94
2017-07-03T03:17:54.704Z,946.91
2017-07-03T03:18:23.322Z,946.86
2017-07-03T03:18:51.933Z,946.91
2017-07-03T03:19:20.462Z,946.97
2017-07-03T03:19:49.058Z,946.93
2017-07-03T03:20:17.685Z,946.93
2017-07-03T03:20:46.284Z,946.94
2017-07-03T03:21:14.908Z,946.91
2017-07-03T03:21:43.539Z,946.94
2017-07-03T03:22:12.140Z,946.9
2017-07-03T03:22:40.731Z,946.98
2017-07-03T03:23:09.336Z,946.94
2017-07-03T03:23:37.930Z,946.94
2017-07-03T03:24:06.547Z,946.96
2017-07-03T03:24:35.151Z,946.92
2017-07-03T03:25:03.660Z,946.95
2017-07-03T03:25:32.254Z,946.94
2017-07-03T03:26:00.886Z,946.91
2017-07-03T03:26:29.489Z,946.92
2017-07-03T03:26:58.046Z,946.89
2017-07-03T03:27:26.650Z,946.95
2017-07-03T03:27:55.261Z,946.88
2017-07-03T03:28:23.857Z,946.92
2017-07-03T03:28:52.463Z,946.92
2017-07-03T03:29:21.082Z,946.89
2017-07-03T03:29:49.702Z,946.9
2017-07-03T03:30:18.331Z,946.9
2017-07-03T03:30:46.929Z,946.86
2017-07-03T03:31:15.535Z,946.81
2017-07-03T03:31:44.054Z,946.9
2017-07-03T03:32:12.609Z,946.87
2017-07-03T03:32:41.230Z,946.92
2017-07-03T03:33:09.824Z,946.88
2017-07-03T03:33:38.401Z,946.88
2017-07-03T03:34:06.911Z,946.89
2017-07-03T03:34:35.520Z,946.88
2017-07-03T03:35:04.117Z,946.82
2017-07-03T03:35:32.736Z,946.82
2017-07-03T03:36:01.290Z,946.85
2017-07-03T03:36:29.802Z,946.82
2017-07-03T03:36:58.423Z,946.89
2017-07-03T03:37:27.028Z,946.81
2017-07-03T03:37:55.669Z,946.84
2017-07-03T03:38:24.283Z,946.79
2017-07-03T03:38:52.898Z,946.75
2017-07-03T03:39:21.500Z,946.79
2017-07-03T03:39:50.016Z,946.72
2017-07-03T03:40:18.641Z,946.77
2017-07-03T03:40:47.251Z,946.79
2017-07-03T03:41:15.767Z,946.82
2017-07-03T03:41:44.339Z,946.74
2017-07-03T03:42:12.855Z,946.85
2017-07-03T03:42:41.489Z,946.83
2017-07-03T03:43:10.097Z,946.76
2017-07-03T03:43:38.709Z,946.77
2017-07-03T03:44:07.328Z,946.83
2017-07-03T03:44:35.947Z,946.81
2017-07-03T03:45:04.551Z,946.84
2017-07-03T03:45:33.162Z,946.8
2017-07-03T03:46:01.757Z,946.82
2017-07-03T03:46:30.394Z,946.8
2017-07-03T03:46:59.017Z,946.72
2017-07-03T03:47:27.626Z,946.82
2017-07-03T03:47:56.247Z,946.8
2017-07-03T03:48:24.833Z,946.81
2017-07-03T03:48:53.345Z,946.81
2017-07-03T03:49:21.937Z,946.83
2017-07-03T03:49:50.550Z,946.87
2017-07-03T03:50:19.147Z,946.81
2017-07-03T03:50:47.759Z,946.84
2017-07-03T03:51:16.410Z,946.81
2017-07-03T03:51:44.914Z,946.86
2017-07-03T03:52:13.524Z,946.84
2017-07-03T03:52:42.053Z,946.84
2017-07-03T03:53:10.644Z,946.81
2017-07-03T03:53:39.244Z,946.83
2017-07-03T03:54:07.819Z,946.85
2017-07-03T03:54:36.437Z,946.81
2017-07-03T03:55:05.060Z,946.83
2017-07-03T03:55:33.673Z,946.83
2017-07-03T03:56:02.288Z,946.8
2017-07-03T03:56:30.903Z,946.76
2017-07-03T03:56:59.509Z,946.8
2017-07-03T03:57:27.983Z,946.77
2017-07-03T03:57:56.632Z,946.81
2017-07-03T03:58:25.253Z,946.8
2017-07-03T03:58:53.769Z,946.77
2017-07-03T03:59:22.399Z,946.82
2017-07-03T03:59:50.995Z,946.77
2017-07-03T04:00:19.615Z,946.82
2017-07-03T04:00:48.130Z,946.79
2017-07-03T04:01:16.751Z,946.86
2017-07-03T04:01:45.372Z,946.78
2017-07-03T04:02:13.890Z,946.75
2017-07-03T04:02:42.503Z,946.72
2017-07-03T04:03:11.107Z,946.75
2017-07-03T04:03:39.716Z,946.77
2017-07-03T04:04:08.277Z,946.78
2017-07-03T04:04:36.863Z,946.79
2017-07-03T04:05:05.473Z,946.81
2017-07-03T04:05:34.098Z,946.81
2017-07-03T04:06:02.714Z,946.75
2017-07-03T04:06:31.228Z,946.75
2017-07-03T04:06:59.936Z,946.78
2017-07-03T04:07:28.539Z,946.75
2017-07-03T04:07:57.152Z,946.79
2017-07-03T04:08:25.743Z,946.77
2017-07-03T04:08:54.277Z,946.76
2017-07-03T04:09:22.879Z,946.75
2017-07-03T04:09:51.501Z,946.73
2017-07-03T04:10:19.987Z,946.74
2017-07-03T04:10:48.500Z,946.8
2017-07-03T04:11:17.126Z,946.76
2017-07-03T04:11:45.644Z,946.79
2017-07-03T04:12:14.241Z,946.77
2017-07-03T04:12:42.834Z,946.79
2017-07-03T04:13:11.459Z,946.66
2017-07-03T04:13:40.054Z,946.78
2017-07-03T04:14:08.660Z,946.78
2017-07-03T04:14:37.206Z,946.77
2017-07-03T04:15:05.915Z,946.75
2017-07-03T04:15:34.542Z,946.76
2017-07-03T04:16:03.155Z,946.77
2017-07-03T04:16:31.659Z,946.71
2017-07-03T04:17:00.284Z,946.72
2017-07-03T04:17:28.894Z,946.75
2017-07-03T04:17:57.485Z,946.75
2017-07-03T04:18:26.016Z,946.73
2017-07-03T04:18:54.627Z,946.71
2017-07-03T04:19:23.247Z,946.73
2017-07-03T04:19:51.862Z,946.71
2017-07-03T04:20:20.359Z,946.7
2017-07-03T04:20:48.983Z,946.69
2017-07-03T04:21:17.591Z,946.72
2017-07-03T04:21:46.220Z,946.69
2017-07-03T04:22:14.829Z,946.75
2017-07-03T04:22:43.426Z,946.71
2017-07-03T04:23:12.054Z,946.75
2017-07-03T04:23:40.672Z,946.73
2017-07-03T04:24:09.289Z,946.78
2017-07-03T04:24:37.920Z,946.71
2017-07-03T04:25:06.542Z,946.73
2017-07-03T04:25:35.142Z,946.71
2017-07-03T04:26:03.782Z,946.73
2017-07-03T04:26:32.379Z,946.72
2017-07-03T04:27:00.984Z,946.71
2017-07-03T04:27:29.486Z,946.68
2017-07-03T04:27:58.085Z,946.66
2017-07-03T04:28:26.703Z,946.64
2017-07-03T04:28:55.222Z,946.62
2017-07-03T04:29:23.717Z,946.63
2017-07-03T04:29:52.336Z,946.53
2017-07-03T04:30:20.851Z,946.61
2017-07-03T04:30:49.348Z,946.55
2017-07-03T04:31:18.033Z,946.55
2017-07-03T04:31:46.487Z,946.58
2017-07-03T04:32:15.111Z,946.57
2017-07-03T04:32:43.711Z,946.62
2017-07-03T04:33:12.228Z,946.58
2017-07-03T04:33:40.858Z,946.6
2017-07-03T04:34:09.424Z,946.57
2017-07-03T04:34:37.954Z,946.55
2017-07-03T04:35:06.558Z,946.55
2017-07-03T04:35:35.166Z,946.59
2017-07-03T04:36:03.780Z,946.57
2017-07-03T04:36:32.232Z,946.62
2017-07-03T04:37:00.836Z,946.63
2017-07-03T04:37:29.580Z,946.6
2017-07-03T04:37:58.396Z,946.6
2017-07-03T04:38:26.966Z,946.63
2017-07-03T04:38:55.589Z,946.55
2017-07-03T04:39:24.213Z,946.62
2017-07-03T04:39:52.837Z,946.6
2017-07-03T04:40:21.425Z,946.56
2017-07-03T04:40:50.023Z,946.58
2017-07-03T04:41:18.666Z,946.55
2017-07-03T04:41:47.243Z,946.55
2017-07-03T04:42:15.911Z,946.55
2017-07-03T04:42:44.534Z,946.55
2017-07-03T04:43:13.058Z,946.5
2017-07-03T04:43:41.675Z,946.52
2017-07-03T04:44:10.278Z,946.56
2017-07-03T04:44:38.881Z,946.56
2017-07-03T04:45:07.358Z,946.56
2017-07-03T04:45:35.966Z,946.52
2017-07-03T04:46:04.504Z,946.53
2017-07-03T04:46:33.103Z,946.51
2017-07-03T04:47:01.642Z,946.57
2017-07-03T04:47:30.267Z,946.52
2017-07-03T04:47:58.884Z,946.53
2017-07-03T04:48:27.492Z,946.52
2017-07-03T04:48:56.036Z,946.54
2017-07-03T04:49:24.648Z,946.49
2017-07-03T04:49:53.267Z,946.53
2017-07-03T04:50:21.786Z,946.53
2017-07-03T04:50:50.291Z,946.49
2017-07-03T04:51:18.889Z,946.48
2017-07-03T04:51:47.378Z,946.43
2017-07-03T04:52:15.990Z,946.44
2017-07-03T04:52:44.569Z,946.47
2017-07-03T04:53:13.087Z,946.44
2017-07-03T04:53:41.672Z,946.41
2017-07-03T04:54:10.283Z,946.45
2017-07-03T04:54:38.810Z,946.43
2017-07-03T04:55:07.417Z,946.41
2017-07-03T04:55:35.943Z,946.42
2017-07-03T04:56:04.568Z,946.41
2017-07-03T04:56:33.318Z,946.43
2017-07-03T04:57:01.930Z,946.36
2017-07-03T04:57:30.379Z,946.37
2017-07-03T04:57:59.005Z,946.39
2017-07-03T04:58:27.633Z,946.39
2017-07-03T04:58:56.288Z,946.38
2017-07-03T04:59:24.907Z,946.4
2017-07-03T04:59:53.489Z,946.4
2017-07-03T05:00:22.099Z,946.38
2017-07-03T05:00:50.634Z,946.41
2017-07-03T05:01:19.153Z,946.4
2017-07-03T05:01:47.757Z,946.4
2017-07-03T05:02:16.287Z,946.45
2017-07-03T05:02:44.905Z,946.42
2017-07-03T05:03:13.420Z,946.43
2017-07-03T05:03:42.036Z,946.41
2017-07-03T05:04:10.657Z,946.45
2017-07-03T05:04:39.044Z,946.41
2017-07-03T05:05:07.640Z,946.42
2017-07-03T05:05:36.239Z,946.42
2017-07-03T05:06:04.778Z,946.4
2017-07-03T05:06:33.397Z,946.38
2017-07-03T05:07:01.862Z,946.36
2017-07-03T05:07:30.451Z,946.37
2017-07-03T05:07:58.956Z,946.39
2017-07-03T05:08:27.584Z,946.35
2017-07-03T05:08:56.107Z,946.33
2017-07-03T05:09:24.736Z,946.36
2017-07-03T05:09:53.327Z,946.35
2017-07-03T05:10:21.912Z,946.35
2017-07-03T05:10:50.412Z,946.38
2017-07-03T05:11:19.053Z,946.36
2017-07-03T05:11:47.651Z,946.37
2017-07-03T05:12:16.249Z,946.34
2017-07-03T05:12:44.852Z,946.24
2017-07-03T05:13:13.482Z,946.38
2017-07-03T05:13:42.108Z,946.35
2017-07-03T05:14:10.727Z,946.34
2017-07-03T05:14:39.231Z,946.36
2017-07-03T05:15:07.821Z,946.37
2017-07-03T05:15:36.437Z,946.37
2017-07-03T05:16:04.952Z,946.32
2017-07-03T05:16:33.725Z,946.36
2017-07-03T05:17:02.341Z,946.35
2017-07-03T05:17:30.949Z,946.36
2017-07-03T05:17:59.465Z,946.35
2017-07-03T05:18:28.055Z,946.37
2017-07-03T05:18:56.644Z,946.38
2017-07-03T05:19:25.172Z,946.4
2017-07-03T05:19:53.688Z,946.38
2017-07-03T05:20:22.207Z,946.42
2017-07-03T05:20:50.801Z,946.34
2017-07-03T05:21:19.397Z,946.34
2017-07-03T05:21:48.008Z,946.38
2017-07-03T05:22:16.531Z,946.36
2017-07-03T05:22:45.157Z,946.36
2017-07-03T05:23:13.686Z,946.4
2017-07-03T05:23:42.278Z,946.42
2017-07-03T05:24:10.857Z,946.37
2017-07-03T05:24:39.471Z,946.37
2017-07-03T05:25:08.087Z,946.43
2017-07-03T05:25:36.687Z,946.4
2017-07-03T05:26:05.308Z,946.36
2017-07-03T05:26:33.722Z,946.42
2017-07-03T05:27:02.312Z,946.35
2017-07-03T05:27:30.955Z,946.41
2017-07-03T05:27:59.481Z,946.37
2017-07-03T05:28:28.019Z,946.36
2017-07-03T05:28:56.613Z,946.38
2017-07-03T05:29:25.256Z,946.38
2017-07-03T05:29:53.876Z,946.42
2017-07-03T05:30:22.463Z,946.37
2017-07-03T05:30:50.995Z,946.33
2017-07-03T05:31:19.608Z,946.35
2017-07-03T05:31:48.205Z,946.35
2017-07-03T05:32:16.796Z,946.36
2017-07-03T05:32:45.409Z,946.35
2017-07-03T05:33:13.994Z,946.38
2017-07-03T05:33:42.626Z,946.37
2017-07-03T05:34:11.196Z,946.35
2017-07-03T05:34:39.706Z,946.34
2017-07-03T05:35:08.319Z,946.36
2017-07-03T05:35:36.919Z,946.34
2017-07-03T05:36:05.434Z,946.35
2017-07-03T05:36:34.041Z,946.34
2017-07-03T05:37:02.531Z,946.35
2017-07-03T05:37:31.124Z,946.33
2017-07-03T05:37:59.712Z,946.35
2017-07-03T05:38:28.244Z,946.33
2017-07-03T05:38:56.835Z,946.31
2017-07-03T05:39:25.428Z,946.34
2017-07-03T05:39:53.926Z,946.33
2017-07-03T05:40:22.544Z,946.37
2017-07-03T05:40:51.152Z,946.31
2017-07-03T05:41:19.782Z,946.29
2017-07-03T05:41:48.407Z,946.31
2017-07-03T05:42:17.006Z,946.35
2017-07-03T05:42:45.641Z,946.34
2017-07-03T05:43:14.223Z,946.33
2017-07-03T05:43:42.811Z,946.31
2017-07-03T05:44:11.404Z,946.31
2017-07-03T05:44:40.038Z,946.22
2017-07-03T05:45:08.635Z,946.3
2017-07-03T05:45:37.229Z,946.31
2017-07-03T05:46:05.824Z,946.28
2017-07-03T05:46:34.400Z,946.28
2017-07-03T05:47:03.020Z,946.32
2017-07-03T05:47:31.663Z,946.3
2017-07-03T05:48:00.217Z,946.3
2017-07-03T05:48:28.828Z,946.25
2017-07-03T05:48:57.443Z,946.28
2017-07-03T05:49:26.042Z,946.25
2017-07-03T05:49:54.669Z,946.26
2017-07-03T05:50:23.264Z,946.23
2017-07-03T05:50:51.861Z,946.27
2017-07-03T05:51:20.471Z,946.29
2017-07-03T05:51:49.125Z,946.27
2017-07-03T05:52:17.757Z,946.25
2017-07-03T05:52:46.361Z,946.26
2017-07-03T05:53:14.968Z,946.25
2017-07-03T05:53:43.559Z,946.29
2017-07-03T05:54:11.976Z,946.27
2017-07-03T05:54:40.585Z,946.27
2017-07-03T05:55:09.100Z,946.29
2017-07-03T05:55:37.713Z,946.22
2017-07-03T05:56:06.281Z,946.28
2017-07-03T05:56:34.689Z,946.28
2017-07-03T05:57:03.299Z,946.24
2017-07-03T05:57:31.906Z,946.23
2017-07-03T05:58:00.533Z,946.22
2017-07-03T05:58:29.138Z,946.24
2017-07-03T05:58:57.748Z,946.25